sensor_id;sensor_type;location;lat;lon;timestamp;temperature;humidity
7688;DHT22;30781;48.154;11.554;2022-09-30T00:01:40;10.20;99.90
7688;DHT22;30781;48.154;11.554;2022-09-30T00:04:12;10.30;99.90
7688;DHT22;30781;48.154;11.554;2022-09-30T00:06:43;10.20;99.90
7688;DHT22;30781;48.154;11.554;2022-09-30T00:09:17;10.20;99.90
7688;DHT22;30781;48.154;11.554;2022-09-30T00:11:49;10.30;99.90
7688;DHT22;30781;48.154;11.554;2022-09-30T00:14:21;10.20;99.90
7688;DHT22;30781;48.154;11.554;2022-09-30T00:16:49;10.20;99.90
7688;DHT22;30781;48.154;11.554;2022-09-30T00:19:33;10.20;99.90
7688;DHT22;30781;48.154;11.554;2022-09-30T00:22:07;10.30;99.90
7688;DHT22;30781;48.154;11.554;2022-09-30T00:24:35;10.20;99.90
7688;DHT22;30781;48.154;11.554;2022-09-30T00:27:03;10.20;99.90
7688;DHT22;30781;48.154;11.554;2022-09-30T00:29:31;10.20;99.90
7688;DHT22;30781;48.154;11.554;2022-09-30T00:32:01;10.20;99.90
7688;DHT22;30781;48.154;11.554;2022-09-30T00:34:32;10.20;99.90
7688;DHT22;30781;48.154;11.554;2022-09-30T00:36:59;10.20;99.90
7688;DHT22;30781;48.154;11.554;2022-09-30T00:39:29;10.20;99.90
7688;DHT22;30781;48.154;11.554;2022-09-30T00:42:06;10.20;99.90
7688;DHT22;30781;48.154;11.554;2022-09-30T00:44:48;10.10;99.90
7688;DHT22;30781;48.154;11.554;2022-09-30T00:47:43;10.10;99.90
7688;DHT22;30781;48.154;11.554;2022-09-30T00:50:28;10.10;99.90
7688;DHT22;30781;48.154;11.554;2022-09-30T00:53:11;10.10;99.90
7688;DHT22;30781;48.154;11.554;2022-09-30T00:56:05;10.00;99.90
7688;DHT22;30781;48.154;11.554;2022-09-30T00:58:40;10.00;99.90
7688;DHT22;30781;48.154;11.554;2022-09-30T01:01:11;10.10;99.90
7688;DHT22;30781;48.154;11.554;2022-09-30T01:03:41;10.00;99.90
7688;DHT22;30781;48.154;11.554;2022-09-30T01:06:14;10.00;99.90
7688;DHT22;30781;48.154;11.554;2022-09-30T01:08:47;10.00;99.90
7688;DHT22;30781;48.154;11.554;2022-09-30T01:11:18;10.00;99.90
7688;DHT22;30781;48.154;11.554;2022-09-30T01:13:50;10.00;99.90
7688;DHT22;30781;48.154;11.554;2022-09-30T01:16:34;10.00;99.90
7688;DHT22;30781;48.154;11.554;2022-09-30T01:19:35;10.00;99.90
7688;DHT22;30781;48.154;11.554;2022-09-30T01:22:28;10.00;99.90
7688;DHT22;30781;48.154;11.554;2022-09-30T01:25:36;10.10;99.90
7688;DHT22;30781;48.154;11.554;2022-09-30T01:28:45;10.10;99.90
7688;DHT22;30781;48.154;11.554;2022-09-30T01:31:26;10.00;99.90
7688;DHT22;30781;48.154;11.554;2022-09-30T01:34:04;10.10;99.90
7688;DHT22;30781;48.154;11.554;2022-09-30T01:36:49;10.10;99.90
7688;DHT22;30781;48.154;11.554;2022-09-30T01:39:30;10.10;99.90
7688;DHT22;30781;48.154;11.554;2022-09-30T01:42:11;10.10;99.90
7688;DHT22;30781;48.154;11.554;2022-09-30T01:44:48;10.10;99.90
7688;DHT22;30781;48.154;11.554;2022-09-30T01:47:30;10.10;99.90
7688;DHT22;30781;48.154;11.554;2022-09-30T01:50:04;10.10;99.90
7688;DHT22;30781;48.154;11.554;2022-09-30T01:52:40;10.20;99.90
7688;DHT22;30781;48.154;11.554;2022-09-30T01:55:20;10.20;99.90
7688;DHT22;30781;48.154;11.554;2022-09-30T01:57:55;10.20;99.90
7688;DHT22;30781;48.154;11.554;2022-09-30T02:00:25;10.20;99.90
7688;DHT22;30781;48.154;11.554;2022-09-30T02:03:01;10.20;99.90
7688;DHT22;30781;48.154;11.554;2022-09-30T02:05:34;10.20;99.90
7688;DHT22;30781;48.154;11.554;2022-09-30T02:08:13;10.20;99.90
7688;DHT22;30781;48.154;11.554;2022-09-30T02:10:47;10.30;99.90
7688;DHT22;30781;48.154;11.554;2022-09-30T02:13:20;10.30;99.90
7688;DHT22;30781;48.154;11.554;2022-09-30T02:16:00;10.30;99.90
7688;DHT22;30781;48.154;11.554;2022-09-30T02:18:50;10.30;99.90
7688;DHT22;30781;48.154;11.554;2022-09-30T02:21:29;10.30;99.90
7688;DHT22;30781;48.154;11.554;2022-09-30T02:24:04;10.30;99.90
7688;DHT22;30781;48.154;11.554;2022-09-30T02:26:39;10.30;99.90
7688;DHT22;30781;48.154;11.554;2022-09-30T02:29:14;10.40;99.90
7688;DHT22;30781;48.154;11.554;2022-09-30T02:31:44;10.40;99.90
7688;DHT22;30781;48.154;11.554;2022-09-30T02:34:19;10.30;99.90
7688;DHT22;30781;48.154;11.554;2022-09-30T02:36:52;10.40;99.90
7688;DHT22;30781;48.154;11.554;2022-09-30T02:39:26;10.30;99.90
7688;DHT22;30781;48.154;11.554;2022-09-30T02:42:03;10.30;99.90
7688;DHT22;30781;48.154;11.554;2022-09-30T02:44:36;10.30;99.90
7688;DHT22;30781;48.154;11.554;2022-09-30T02:47:18;10.30;99.90
7688;DHT22;30781;48.154;11.554;2022-09-30T02:49:56;10.30;99.90
7688;DHT22;30781;48.154;11.554;2022-09-30T02:52:42;10.20;99.90
7688;DHT22;30781;48.154;11.554;2022-09-30T02:55:18;10.20;99.90
7688;DHT22;30781;48.154;11.554;2022-09-30T02:57:55;10.10;99.90
7688;DHT22;30781;48.154;11.554;2022-09-30T03:00:24;10.10;99.90
7688;DHT22;30781;48.154;11.554;2022-09-30T03:02:56;10.00;99.90
7688;DHT22;30781;48.154;11.554;2022-09-30T03:05:29;10.10;99.90
7688;DHT22;30781;48.154;11.554;2022-09-30T03:07:56;10.00;99.90
7688;DHT22;30781;48.154;11.554;2022-09-30T03:10:24;10.00;99.90
7688;DHT22;30781;48.154;11.554;2022-09-30T03:13:15;10.00;99.90
7688;DHT22;30781;48.154;11.554;2022-09-30T03:15:56;10.10;99.90
7688;DHT22;30781;48.154;11.554;2022-09-30T03:21:58;10.00;99.90
7688;DHT22;30781;48.154;11.554;2022-09-30T03:24:51;10.00;99.90
7688;DHT22;30781;48.154;11.554;2022-09-30T03:27:30;10.00;99.90
7688;DHT22;30781;48.154;11.554;2022-09-30T03:30:03;9.90;99.90
7688;DHT22;30781;48.154;11.554;2022-09-30T03:32:53;9.90;99.90
7688;DHT22;30781;48.154;11.554;2022-09-30T03:35:31;9.90;99.90
7688;DHT22;30781;48.154;11.554;2022-09-30T03:38:08;9.90;99.90
7688;DHT22;30781;48.154;11.554;2022-09-30T03:40:42;9.90;99.90
7688;DHT22;30781;48.154;11.554;2022-09-30T03:43:19;9.90;99.90
7688;DHT22;30781;48.154;11.554;2022-09-30T03:45:56;9.90;99.90
7688;DHT22;30781;48.154;11.554;2022-09-30T03:48:31;10.00;99.90
7688;DHT22;30781;48.154;11.554;2022-09-30T03:51:00;10.00;99.90
7688;DHT22;30781;48.154;11.554;2022-09-30T03:53:42;10.00;99.90
7688;DHT22;30781;48.154;11.554;2022-09-30T03:56:16;10.00;99.90
7688;DHT22;30781;48.154;11.554;2022-09-30T03:58:55;10.00;99.90
7688;DHT22;30781;48.154;11.554;2022-09-30T04:01:23;10.00;99.90
7688;DHT22;30781;48.154;11.554;2022-09-30T04:03:53;10.00;99.90
7688;DHT22;30781;48.154;11.554;2022-09-30T04:06:24;10.10;99.90
7688;DHT22;30781;48.154;11.554;2022-09-30T04:09:00;10.00;99.90
7688;DHT22;30781;48.154;11.554;2022-09-30T04:11:28;10.00;99.90
7688;DHT22;30781;48.154;11.554;2022-09-30T04:13:58;10.00;99.90
7688;DHT22;30781;48.154;11.554;2022-09-30T04:16:29;10.00;99.90
7688;DHT22;30781;48.154;11.554;2022-09-30T04:18:59;10.00;99.90
7688;DHT22;30781;48.154;11.554;2022-09-30T04:21:47;10.00;99.90
7688;DHT22;30781;48.154;11.554;2022-09-30T04:24:26;10.00;99.90
7688;DHT22;30781;48.154;11.554;2022-09-30T04:26:57;10.00;99.90
7688;DHT22;30781;48.154;11.554;2022-09-30T04:29:34;9.90;99.90
7688;DHT22;30781;48.154;11.554;2022-09-30T04:32:03;9.90;99.90
7688;DHT22;30781;48.154;11.554;2022-09-30T04:34:32;9.90;99.90
7688;DHT22;30781;48.154;11.554;2022-09-30T04:37:00;9.90;99.90
7688;DHT22;30781;48.154;11.554;2022-09-30T04:39:32;9.80;99.90
7688;DHT22;30781;48.154;11.554;2022-09-30T04:42:02;9.80;99.90
7688;DHT22;30781;48.154;11.554;2022-09-30T04:44:32;9.80;99.90
7688;DHT22;30781;48.154;11.554;2022-09-30T04:47:02;9.80;99.90
7688;DHT22;30781;48.154;11.554;2022-09-30T04:49:31;9.80;99.90
7688;DHT22;30781;48.154;11.554;2022-09-30T04:52:00;9.80;99.90
7688;DHT22;30781;48.154;11.554;2022-09-30T04:54:29;9.80;99.90
7688;DHT22;30781;48.154;11.554;2022-09-30T04:56:58;9.70;99.90
7688;DHT22;30781;48.154;11.554;2022-09-30T04:59:28;9.70;99.90
7688;DHT22;30781;48.154;11.554;2022-09-30T05:01:58;9.70;99.90
7688;DHT22;30781;48.154;11.554;2022-09-30T05:04:40;9.60;99.90
7688;DHT22;30781;48.154;11.554;2022-09-30T05:07:10;9.60;99.90
7688;DHT22;30781;48.154;11.554;2022-09-30T05:09:47;9.60;99.90
7688;DHT22;30781;48.154;11.554;2022-09-30T05:12:22;9.50;99.90
7688;DHT22;30781;48.154;11.554;2022-09-30T05:14:57;9.50;99.90
7688;DHT22;30781;48.154;11.554;2022-09-30T05:17:25;9.50;99.90
7688;DHT22;30781;48.154;11.554;2022-09-30T05:19:55;9.50;99.90
7688;DHT22;30781;48.154;11.554;2022-09-30T05:22:26;9.50;99.90
7688;DHT22;30781;48.154;11.554;2022-09-30T05:24:56;9.50;99.90
7688;DHT22;30781;48.154;11.554;2022-09-30T05:27:29;9.50;99.90
7688;DHT22;30781;48.154;11.554;2022-09-30T05:30:21;9.60;99.90
7688;DHT22;30781;48.154;11.554;2022-09-30T05:32:52;9.60;99.90
7688;DHT22;30781;48.154;11.554;2022-09-30T05:35:22;9.60;99.90
7688;DHT22;30781;48.154;11.554;2022-09-30T05:37:53;9.70;99.90
7688;DHT22;30781;48.154;11.554;2022-09-30T05:40:22;9.70;99.90
7688;DHT22;30781;48.154;11.554;2022-09-30T05:43:05;9.70;99.90
7688;DHT22;30781;48.154;11.554;2022-09-30T05:45:33;9.80;99.90
7688;DHT22;30781;48.154;11.554;2022-09-30T05:48:03;9.80;99.90
7688;DHT22;30781;48.154;11.554;2022-09-30T05:50:32;9.80;99.90
7688;DHT22;30781;48.154;11.554;2022-09-30T05:53:17;9.90;99.90
7688;DHT22;30781;48.154;11.554;2022-09-30T05:55:49;9.90;99.90
7688;DHT22;30781;48.154;11.554;2022-09-30T05:58:21;10.00;99.90
7688;DHT22;30781;48.154;11.554;2022-09-30T06:00:50;10.00;99.90
7688;DHT22;30781;48.154;11.554;2022-09-30T06:03:22;10.00;99.90
7688;DHT22;30781;48.154;11.554;2022-09-30T06:05:55;10.10;99.90
7688;DHT22;30781;48.154;11.554;2022-09-30T06:08:22;10.20;99.90
7688;DHT22;30781;48.154;11.554;2022-09-30T06:10:53;10.30;99.90
7688;DHT22;30781;48.154;11.554;2022-09-30T06:13:25;10.50;99.90
7688;DHT22;30781;48.154;11.554;2022-09-30T06:15:56;10.60;99.90
7688;DHT22;30781;48.154;11.554;2022-09-30T06:18:26;10.80;99.90
7688;DHT22;30781;48.154;11.554;2022-09-30T06:20:57;10.90;99.90
7688;DHT22;30781;48.154;11.554;2022-09-30T06:23:29;11.00;99.90
7688;DHT22;30781;48.154;11.554;2022-09-30T06:26:06;11.10;99.90
7688;DHT22;30781;48.154;11.554;2022-09-30T06:28:46;11.30;99.90
7688;DHT22;30781;48.154;11.554;2022-09-30T06:31:16;11.40;99.90
7688;DHT22;30781;48.154;11.554;2022-09-30T06:33:46;11.50;99.90
7688;DHT22;30781;48.154;11.554;2022-09-30T06:36:18;11.60;99.90
7688;DHT22;30781;48.154;11.554;2022-09-30T06:38:51;11.80;99.90
7688;DHT22;30781;48.154;11.554;2022-09-30T06:41:19;11.80;99.90
7688;DHT22;30781;48.154;11.554;2022-09-30T06:43:50;12.00;99.90
7688;DHT22;30781;48.154;11.554;2022-09-30T06:46:21;12.10;99.90
7688;DHT22;30781;48.154;11.554;2022-09-30T06:48:59;12.30;99.90
7688;DHT22;30781;48.154;11.554;2022-09-30T06:51:29;12.50;99.90
7688;DHT22;30781;48.154;11.554;2022-09-30T06:53:59;12.70;99.90
7688;DHT22;30781;48.154;11.554;2022-09-30T06:56:27;13.20;99.90
7688;DHT22;30781;48.154;11.554;2022-09-30T06:59:03;13.50;99.90
7688;DHT22;30781;48.154;11.554;2022-09-30T07:01:30;13.90;99.90
7688;DHT22;30781;48.154;11.554;2022-09-30T07:04:03;14.20;99.90
7688;DHT22;30781;48.154;11.554;2022-09-30T07:06:37;14.40;99.90
7688;DHT22;30781;48.154;11.554;2022-09-30T07:09:06;14.50;99.90
7688;DHT22;30781;48.154;11.554;2022-09-30T07:11:38;14.80;99.90
7688;DHT22;30781;48.154;11.554;2022-09-30T07:14:08;15.00;99.90
7688;DHT22;30781;48.154;11.554;2022-09-30T07:16:38;15.30;99.90
7688;DHT22;30781;48.154;11.554;2022-09-30T07:19:06;15.50;99.90
7688;DHT22;30781;48.154;11.554;2022-09-30T07:21:36;15.60;99.90
7688;DHT22;30781;48.154;11.554;2022-09-30T07:24:08;15.60;99.90
7688;DHT22;30781;48.154;11.554;2022-09-30T07:26:40;15.60;99.90
7688;DHT22;30781;48.154;11.554;2022-09-30T07:29:12;15.60;99.90
7688;DHT22;30781;48.154;11.554;2022-09-30T07:31:40;15.60;99.90
7688;DHT22;30781;48.154;11.554;2022-09-30T07:34:10;15.50;99.90
7688;DHT22;30781;48.154;11.554;2022-09-30T07:36:39;15.50;99.90
7688;DHT22;30781;48.154;11.554;2022-09-30T07:39:22;15.60;99.90
7688;DHT22;30781;48.154;11.554;2022-09-30T07:42:02;15.70;99.90
7688;DHT22;30781;48.154;11.554;2022-09-30T07:44:37;15.80;99.90
7688;DHT22;30781;48.154;11.554;2022-09-30T07:47:19;16.00;99.90
7688;DHT22;30781;48.154;11.554;2022-09-30T07:49:48;16.20;99.90
7688;DHT22;30781;48.154;11.554;2022-09-30T07:52:15;16.40;99.90
7688;DHT22;30781;48.154;11.554;2022-09-30T07:54:52;16.50;99.90
7688;DHT22;30781;48.154;11.554;2022-09-30T07:57:21;16.60;99.90
7688;DHT22;30781;48.154;11.554;2022-09-30T07:59:51;16.60;99.90
7688;DHT22;30781;48.154;11.554;2022-09-30T08:02:19;16.60;99.90
7688;DHT22;30781;48.154;11.554;2022-09-30T08:04:51;16.60;99.90
7688;DHT22;30781;48.154;11.554;2022-09-30T08:07:22;16.50;99.90
7688;DHT22;30781;48.154;11.554;2022-09-30T08:09:50;16.50;99.90
7688;DHT22;30781;48.154;11.554;2022-09-30T08:12:22;16.40;99.90
7688;DHT22;30781;48.154;11.554;2022-09-30T08:15:09;16.30;99.90
7688;DHT22;30781;48.154;11.554;2022-09-30T08:17:44;16.30;99.90
7688;DHT22;30781;48.154;11.554;2022-09-30T08:20:22;16.30;99.90
7688;DHT22;30781;48.154;11.554;2022-09-30T08:22:56;16.20;99.80
7688;DHT22;30781;48.154;11.554;2022-09-30T08:25:24;16.40;99.90
7688;DHT22;30781;48.154;11.554;2022-09-30T08:27:52;16.50;99.90
7688;DHT22;30781;48.154;11.554;2022-09-30T08:30:30;16.70;99.90
7688;DHT22;30781;48.154;11.554;2022-09-30T08:33:14;17.20;99.90
7688;DHT22;30781;48.154;11.554;2022-09-30T08:35:41;17.60;99.10
7688;DHT22;30781;48.154;11.554;2022-09-30T08:38:12;17.80;97.60
7688;DHT22;30781;48.154;11.554;2022-09-30T08:40:53;18.00;98.20
7688;DHT22;30781;48.154;11.554;2022-09-30T08:43:33;18.30;97.80
7688;DHT22;30781;48.154;11.554;2022-09-30T08:46:19;18.60;97.40
7688;DHT22;30781;48.154;11.554;2022-09-30T08:49:00;18.80;96.50
7688;DHT22;30781;48.154;11.554;2022-09-30T08:51:38;18.80;95.10
7688;DHT22;30781;48.154;11.554;2022-09-30T08:54:18;18.80;95.30
7688;DHT22;30781;48.154;11.554;2022-09-30T08:56:50;18.70;95.20
7688;DHT22;30781;48.154;11.554;2022-09-30T08:59:26;18.70;94.50
7688;DHT22;30781;48.154;11.554;2022-09-30T09:02:17;18.70;94.40
7688;DHT22;30781;48.154;11.554;2022-09-30T09:04:48;18.60;94.50
7688;DHT22;30781;48.154;11.554;2022-09-30T09:07:37;18.50;94.70
7688;DHT22;30781;48.154;11.554;2022-09-30T09:10:22;18.40;94.70
7688;DHT22;30781;48.154;11.554;2022-09-30T09:12:57;18.20;94.80
7688;DHT22;30781;48.154;11.554;2022-09-30T09:15:49;18.20;94.80
7688;DHT22;30781;48.154;11.554;2022-09-30T09:18:42;18.20;95.10
7688;DHT22;30781;48.154;11.554;2022-09-30T09:21:41;18.20;95.10
7688;DHT22;30781;48.154;11.554;2022-09-30T09:24:32;18.20;95.10
7688;DHT22;30781;48.154;11.554;2022-09-30T09:27:17;18.10;94.90
7688;DHT22;30781;48.154;11.554;2022-09-30T09:30:03;18.00;94.80
7688;DHT22;30781;48.154;11.554;2022-09-30T09:32:33;17.80;95.00
7688;DHT22;30781;48.154;11.554;2022-09-30T09:35:12;17.80;95.30
7688;DHT22;30781;48.154;11.554;2022-09-30T09:37:49;17.70;95.40
7688;DHT22;30781;48.154;11.554;2022-09-30T09:40:45;17.70;95.20
7688;DHT22;30781;48.154;11.554;2022-09-30T09:43:26;17.50;95.20
7688;DHT22;30781;48.154;11.554;2022-09-30T09:46:03;17.30;95.30
7688;DHT22;30781;48.154;11.554;2022-09-30T09:48:40;17.10;95.60
7688;DHT22;30781;48.154;11.554;2022-09-30T09:51:18;17.00;95.90
7688;DHT22;30781;48.154;11.554;2022-09-30T09:53:53;16.90;96.10
7688;DHT22;30781;48.154;11.554;2022-09-30T09:56:27;16.90;96.70
7688;DHT22;30781;48.154;11.554;2022-09-30T09:59:13;16.90;96.00
7688;DHT22;30781;48.154;11.554;2022-09-30T10:01:52;16.90;96.00
7688;DHT22;30781;48.154;11.554;2022-09-30T10:04:23;16.90;96.20
7688;DHT22;30781;48.154;11.554;2022-09-30T10:06:58;17.00;96.30
7688;DHT22;30781;48.154;11.554;2022-09-30T10:09:29;17.10;96.00
7688;DHT22;30781;48.154;11.554;2022-09-30T10:12:29;17.20;96.20
7688;DHT22;30781;48.154;11.554;2022-09-30T10:15:01;17.40;96.20
7688;DHT22;30781;48.154;11.554;2022-09-30T10:17:31;17.40;96.10
7688;DHT22;30781;48.154;11.554;2022-09-30T10:20:04;17.40;95.70
7688;DHT22;30781;48.154;11.554;2022-09-30T10:22:35;17.30;95.60
7688;DHT22;30781;48.154;11.554;2022-09-30T10:25:18;17.20;95.50
7688;DHT22;30781;48.154;11.554;2022-09-30T10:27:51;17.00;95.70
7688;DHT22;30781;48.154;11.554;2022-09-30T10:30:36;16.90;95.90
7688;DHT22;30781;48.154;11.554;2022-09-30T10:33:21;16.70;95.70
7688;DHT22;30781;48.154;11.554;2022-09-30T10:36:11;16.70;96.00
7688;DHT22;30781;48.154;11.554;2022-09-30T10:39:04;16.70;96.20
7688;DHT22;30781;48.154;11.554;2022-09-30T10:41:35;16.80;96.20
7688;DHT22;30781;48.154;11.554;2022-09-30T10:44:05;16.80;96.00
7688;DHT22;30781;48.154;11.554;2022-09-30T10:46:37;16.90;95.80
7688;DHT22;30781;48.154;11.554;2022-09-30T10:49:09;16.90;95.60
7688;DHT22;30781;48.154;11.554;2022-09-30T10:51:39;16.90;95.40
7688;DHT22;30781;48.154;11.554;2022-09-30T10:54:42;16.70;95.50
7688;DHT22;30781;48.154;11.554;2022-09-30T10:57:17;16.70;96.00
7688;DHT22;30781;48.154;11.554;2022-09-30T10:59:57;16.60;96.20
7688;DHT22;30781;48.154;11.554;2022-09-30T11:02:31;16.70;96.50
7688;DHT22;30781;48.154;11.554;2022-09-30T11:05:08;16.70;96.20
7688;DHT22;30781;48.154;11.554;2022-09-30T11:07:44;16.80;96.20
7688;DHT22;30781;48.154;11.554;2022-09-30T11:10:38;16.80;96.10
7688;DHT22;30781;48.154;11.554;2022-09-30T11:13:18;16.90;96.20
7688;DHT22;30781;48.154;11.554;2022-09-30T11:15:56;16.90;96.00
7688;DHT22;30781;48.154;11.554;2022-09-30T11:18:37;16.70;96.00
7688;DHT22;30781;48.154;11.554;2022-09-30T11:21:20;16.70;96.70
7688;DHT22;30781;48.154;11.554;2022-09-30T11:23:54;16.70;96.60
7688;DHT22;30781;48.154;11.554;2022-09-30T11:26:34;16.70;96.60
7688;DHT22;30781;48.154;11.554;2022-09-30T11:29:24;16.80;96.40
7688;DHT22;30781;48.154;11.554;2022-09-30T11:32:15;16.60;96.60
7688;DHT22;30781;48.154;11.554;2022-09-30T11:34:58;16.50;96.80
7688;DHT22;30781;48.154;11.554;2022-09-30T11:37:43;16.40;96.90
7688;DHT22;30781;48.154;11.554;2022-09-30T11:40:30;16.30;96.80
7688;DHT22;30781;48.154;11.554;2022-09-30T11:43:11;16.20;97.30
7688;DHT22;30781;48.154;11.554;2022-09-30T11:46:00;16.00;97.30
7688;DHT22;30781;48.154;11.554;2022-09-30T11:48:47;15.90;97.40
7688;DHT22;30781;48.154;11.554;2022-09-30T11:51:25;15.70;97.50
7688;DHT22;30781;48.154;11.554;2022-09-30T11:54:04;15.70;97.80
7688;DHT22;30781;48.154;11.554;2022-09-30T11:56:45;15.70;97.90
7688;DHT22;30781;48.154;11.554;2022-09-30T11:59:22;15.60;98.00
7688;DHT22;30781;48.154;11.554;2022-09-30T12:01:53;15.60;98.20
7688;DHT22;30781;48.154;11.554;2022-09-30T12:04:29;15.60;98.20
7688;DHT22;30781;48.154;11.554;2022-09-30T12:07:08;15.70;98.40
7688;DHT22;30781;48.154;11.554;2022-09-30T12:09:41;15.80;98.20
7688;DHT22;30781;48.154;11.554;2022-09-30T12:12:12;15.80;98.30
7688;DHT22;30781;48.154;11.554;2022-09-30T12:14:44;15.90;98.50
7688;DHT22;30781;48.154;11.554;2022-09-30T12:17:24;16.00;98.30
7688;DHT22;30781;48.154;11.554;2022-09-30T12:19:58;16.20;98.20
7688;DHT22;30781;48.154;11.554;2022-09-30T12:22:34;16.40;98.10
7688;DHT22;30781;48.154;11.554;2022-09-30T12:25:12;16.60;97.80
7688;DHT22;30781;48.154;11.554;2022-09-30T12:28:01;16.70;97.00
7688;DHT22;30781;48.154;11.554;2022-09-30T12:31:05;16.70;97.00
7688;DHT22;30781;48.154;11.554;2022-09-30T12:33:46;16.80;96.80
7688;DHT22;30781;48.154;11.554;2022-09-30T12:36:53;16.80;97.00
7688;DHT22;30781;48.154;11.554;2022-09-30T12:39:54;16.90;97.20
7688;DHT22;30781;48.154;11.554;2022-09-30T12:45:58;17.20;96.60
7688;DHT22;30781;48.154;11.554;2022-09-30T12:48:36;17.30;96.40
7688;DHT22;30781;48.154;11.554;2022-09-30T12:51:21;17.40;96.30
7688;DHT22;30781;48.154;11.554;2022-09-30T12:54:03;17.50;96.00
7688;DHT22;30781;48.154;11.554;2022-09-30T12:56:36;17.70;95.90
7688;DHT22;30781;48.154;11.554;2022-09-30T12:59:07;17.80;95.90
7688;DHT22;30781;48.154;11.554;2022-09-30T13:01:38;18.00;95.80
7688;DHT22;30781;48.154;11.554;2022-09-30T13:04:16;18.00;95.60
7688;DHT22;30781;48.154;11.554;2022-09-30T13:07:14;17.90;95.50
7688;DHT22;30781;48.154;11.554;2022-09-30T13:10:15;17.90;95.70
7688;DHT22;30781;48.154;11.554;2022-09-30T13:13:14;17.80;95.70
7688;DHT22;30781;48.154;11.554;2022-09-30T13:15:45;17.80;95.80
7688;DHT22;30781;48.154;11.554;2022-09-30T13:21:25;17.70;95.40
7688;DHT22;30781;48.154;11.554;2022-09-30T13:23:55;17.60;95.60
7688;DHT22;30781;48.154;11.554;2022-09-30T13:26:45;17.60;95.80
7688;DHT22;30781;48.154;11.554;2022-09-30T13:29:35;17.60;95.80
7688;DHT22;30781;48.154;11.554;2022-09-30T13:32:08;17.70;95.70
7688;DHT22;30781;48.154;11.554;2022-09-30T13:34:57;17.60;95.60
7688;DHT22;30781;48.154;11.554;2022-09-30T13:37:46;17.50;95.40
7688;DHT22;30781;48.154;11.554;2022-09-30T13:40:35;17.30;95.40
7688;DHT22;30781;48.154;11.554;2022-09-30T13:43:06;17.00;95.60
7688;DHT22;30781;48.154;11.554;2022-09-30T13:45:38;16.90;95.60
7688;DHT22;30781;48.154;11.554;2022-09-30T13:48:12;16.80;95.80
7688;DHT22;30781;48.154;11.554;2022-09-30T13:50:47;16.80;96.00
7688;DHT22;30781;48.154;11.554;2022-09-30T13:53:22;16.80;96.00
7688;DHT22;30781;48.154;11.554;2022-09-30T13:55:53;16.80;95.90
7688;DHT22;30781;48.154;11.554;2022-09-30T13:59:05;16.80;96.10
7688;DHT22;30781;48.154;11.554;2022-09-30T14:02:37;16.90;96.30
7688;DHT22;30781;48.154;11.554;2022-09-30T14:05:30;16.90;96.40
7688;DHT22;30781;48.154;11.554;2022-09-30T14:08:32;16.90;95.90
7688;DHT22;30781;48.154;11.554;2022-09-30T14:11:32;17.00;96.00
7688;DHT22;30781;48.154;11.554;2022-09-30T14:14:20;17.00;95.90
7688;DHT22;30781;48.154;11.554;2022-09-30T14:17:17;16.90;95.70
7688;DHT22;30781;48.154;11.554;2022-09-30T14:22:59;16.90;96.10
7688;DHT22;30781;48.154;11.554;2022-09-30T14:25:35;16.90;96.30
7688;DHT22;30781;48.154;11.554;2022-09-30T14:28:11;16.90;96.10
7688;DHT22;30781;48.154;11.554;2022-09-30T14:30:43;17.00;96.00
7688;DHT22;30781;48.154;11.554;2022-09-30T14:33:33;17.00;96.10
7688;DHT22;30781;48.154;11.554;2022-09-30T14:36:09;17.00;96.10
7688;DHT22;30781;48.154;11.554;2022-09-30T14:38:46;16.90;96.00
7688;DHT22;30781;48.154;11.554;2022-09-30T14:41:19;16.90;96.20
7688;DHT22;30781;48.154;11.554;2022-09-30T14:43:51;16.80;96.10
7688;DHT22;30781;48.154;11.554;2022-09-30T14:46:27;16.70;96.30
7688;DHT22;30781;48.154;11.554;2022-09-30T14:48:59;16.50;96.20
7688;DHT22;30781;48.154;11.554;2022-09-30T14:51:43;16.50;96.50
7688;DHT22;30781;48.154;11.554;2022-09-30T14:54:19;16.40;96.60
7688;DHT22;30781;48.154;11.554;2022-09-30T14:57:14;16.30;96.60
7688;DHT22;30781;48.154;11.554;2022-09-30T14:59:42;16.20;96.70
7688;DHT22;30781;48.154;11.554;2022-09-30T15:02:13;16.10;96.90
7688;DHT22;30781;48.154;11.554;2022-09-30T15:04:46;15.90;97.10
7688;DHT22;30781;48.154;11.554;2022-09-30T15:07:18;15.90;97.20
7688;DHT22;30781;48.154;11.554;2022-09-30T15:09:48;15.90;97.30
7688;DHT22;30781;48.154;11.554;2022-09-30T15:12:27;15.90;97.40
7688;DHT22;30781;48.154;11.554;2022-09-30T15:14:57;15.90;97.40
7688;DHT22;30781;48.154;11.554;2022-09-30T15:17:38;15.90;97.50
7688;DHT22;30781;48.154;11.554;2022-09-30T15:20:25;15.80;97.40
7688;DHT22;30781;48.154;11.554;2022-09-30T15:23:00;15.80;97.50
7688;DHT22;30781;48.154;11.554;2022-09-30T15:25:33;15.70;97.40
7688;DHT22;30781;48.154;11.554;2022-09-30T15:28:03;15.70;97.60
7688;DHT22;30781;48.154;11.554;2022-09-30T15:30:36;15.60;97.80
7688;DHT22;30781;48.154;11.554;2022-09-30T15:33:14;15.60;97.90
7688;DHT22;30781;48.154;11.554;2022-09-30T15:35:45;15.50;98.00
7688;DHT22;30781;48.154;11.554;2022-09-30T15:38:18;15.30;98.20
7688;DHT22;30781;48.154;11.554;2022-09-30T15:40:51;15.30;98.40
7688;DHT22;30781;48.154;11.554;2022-09-30T15:43:38;15.30;98.40
7688;DHT22;30781;48.154;11.554;2022-09-30T15:46:31;15.20;98.40
7688;DHT22;30781;48.154;11.554;2022-09-30T15:49:43;15.20;98.40
7688;DHT22;30781;48.154;11.554;2022-09-30T15:52:29;15.10;98.50
7688;DHT22;30781;48.154;11.554;2022-09-30T15:57:56;15.00;98.60
7688;DHT22;30781;48.154;11.554;2022-09-30T16:00:39;15.00;98.80
7688;DHT22;30781;48.154;11.554;2022-09-30T16:03:34;15.00;98.90
7688;DHT22;30781;48.154;11.554;2022-09-30T16:06:16;15.00;98.90
7688;DHT22;30781;48.154;11.554;2022-09-30T16:08:54;15.00;99.10
7688;DHT22;30781;48.154;11.554;2022-09-30T16:11:38;15.00;99.30
7688;DHT22;30781;48.154;11.554;2022-09-30T16:14:19;14.90;99.20
7688;DHT22;30781;48.154;11.554;2022-09-30T16:16:56;14.90;99.30
7688;DHT22;30781;48.154;11.554;2022-09-30T16:19:28;14.90;99.60
7688;DHT22;30781;48.154;11.554;2022-09-30T16:22:47;14.80;99.70
7688;DHT22;30781;48.154;11.554;2022-09-30T16:25:32;14.80;99.70
7688;DHT22;30781;48.154;11.554;2022-09-30T16:28:14;14.60;99.90
7688;DHT22;30781;48.154;11.554;2022-09-30T16:30:48;14.60;99.90
7688;DHT22;30781;48.154;11.554;2022-09-30T16:33:19;14.60;99.90
7688;DHT22;30781;48.154;11.554;2022-09-30T16:35:59;14.60;99.90
7688;DHT22;30781;48.154;11.554;2022-09-30T16:38:27;14.60;99.90
7688;DHT22;30781;48.154;11.554;2022-09-30T16:41:03;14.50;99.90
7688;DHT22;30781;48.154;11.554;2022-09-30T16:43:34;14.50;99.90
7688;DHT22;30781;48.154;11.554;2022-09-30T16:46:08;14.50;99.90
7688;DHT22;30781;48.154;11.554;2022-09-30T16:48:43;14.50;99.90
7688;DHT22;30781;48.154;11.554;2022-09-30T16:51:16;14.40;99.90
7688;DHT22;30781;48.154;11.554;2022-09-30T16:53:55;14.40;99.90